• Join FlightAware (Why Join?)
  • Login
  • US Flag 
11:44AM EDT


 

Airport Tracker/Info


-or-


 

Live Flight TrackerFlight Track Log ✈ RPA3242 ✈ 19-May-2013 ✈ KPHL - KALB

Flight Track Log - Related Links

Times and Time Zones

All times are in EDT time to prevent confusion due to time zone crossing. See the RPA3242 flight status page for this flight to view local times or setup timezone preferences in your user account.

Time Position Orientation Groundspeed Altitude Reporting Facility
EDT Latitude Longitude Course Direction KTS MPH feet Rate Location/Type
10:11PM 39.8667 -75.1333 105° East 220 253 3,200  Level Philadelphia TRACON
10:12PM 39.8167 -74.9652 90° East  Level FlightAware Approximate
10:13PM 39.8167 -74.8704 90° East  Level FlightAware Approximate
10:14PM 39.7991 -74.7785 105° East  Level FlightAware Approximate
10:15PM 39.7916 -74.6917 37° Northeast  Level FlightAware Approximate
10:15PM 39.7467 -74.9233 127° Southeast 253 291 11,500  Level New York Center
10:16PM 39.8494 -74.6340 37° Northeast  Level FlightAware Approximate
10:16PM 39.7753 -74.8169 71° East 279 321 13,100  Level New York Center
10:17PM 39.8308 -74.7175 54° Northeast 305 351 15,400 2,160 Climbing New York Center
10:18PM 39.9044 -74.6350 41° Northeast 320 368 17,500 1,800 Climbing New York Center
10:19PM 39.9819 -74.5553 38° Northeast 339 390 19,100 1,680 Climbing New York Center
10:20PM 40.0558 -74.4592 45° Northeast 352 405 20,900 1,620 Climbing New York Center
10:21PM 40.1397 -74.3767 37° Northeast 369 425 22,400 1,500 Climbing New York Center
10:22PM 40.2236 -74.2939 37° Northeast 380 437 23,900 780 Climbing New York Center
10:23PM 40.3197 -74.2119 33° Northeast 395 455 24,000  Climbing New York Center
10:24PM 40.4897 -74.0883 29° Northeast 405 466 24,000  Level Boston Center
10:25PM 40.6036 -74.0064 29° Northeast 416 479 24,000  Level Boston Center
10:26PM 40.7067 -73.9322 29° Northeast 416 479 24,000  Level Boston Center
10:27PM 40.8056 -73.8467 33° Northeast 416 479 24,000  Level Boston Center
10:28PM 40.8967 -73.7417 41° Northeast 421 484 24,000 -420 Level Boston Center
10:29PM 41.0283 -73.7003 13° North 408 470 23,100 -540 Descending Boston Center
10:30PM 41.1261 -73.7050 358° North 384 442 23,000 -300 Descending Boston Center
10:31PM 41.2386 -73.7100 358° North 390 449 22,600 -780 Descending Boston Center
10:32PM 41.3511 -73.7175 357° North 395 455 21,500 -1,080 Descending Boston Center
10:33PM 41.4594 -73.7225 358° North 395 455 20,500 -1,080 Descending Boston Center
10:34PM 41.5678 -73.7275 358° North 395 455 19,400 -1,080 Descending Boston Center
10:35PM 41.6739 -73.7381 356° North 381 438 18,400 -900 Descending Boston Center
10:36PM 41.7864 -73.7458 357° North 381 438 17,600 -960 Descending Boston Center
10:37PM 41.8928 -73.7481 359° North 381 438 16,500 -1,020 Descending Boston Center
10:38PM 41.9967 -73.7558 357° North 376 433 15,600 -1,140 Descending Boston Center
10:39PM 42.0281 -73.7592 355° North 367 422 15,000 -1,920 Descending Boston Center